Time;durP1;ratioP1;P1;durP2;ratioP2;P2;SDS_P1;SDS_P2;PMS_P1;PMS_P2;Temp;Humidity;BMP_temperature;BMP_pressure;BME280_temperature;BME280_humidity;BME280_pressure;Samples;Min_cycle;Max_cycle;Signal;HPM_P1;HPM_P2
2023/07/17 08:49:38;;;;;;;11.50;4.82;;;;;;;17.42;95.90;101676.19;5069675;28;20386;-72
2023/07/17 08:52:05;;;;;;;11.75;4.70;;;;;;;17.57;98.43;101672.00;5069761;28;20033;-73
2023/07/17 08:54:31;;;;;;;9.77;4.50;;;;;;;17.65;89.34;101668.84;5068292;28;20039;-72
2023/07/17 08:57:03;;;;;;;11.02;4.60;;;;;;;17.73;88.73;101668.41;5059533;28;20119;-72
2023/07/17 08:59:54;;;;;;;12.48;4.90;;;;;;;17.74;87.21;101661.84;5048551;28;20032;-77
2023/07/17 09:02:19;;;;;;;10.45;4.53;;;;;;;17.98;92.45;101654.25;5048309;28;20025;-73
2023/07/17 09:05:13;;;;;;;8.45;3.92;;;;;;;18.06;87.78;101663.94;5069970;28;20036;-78
2023/07/17 09:07:42;;;;;;;12.50;4.03;;;;;;;18.13;78.64;101653.59;5065591;28;20052;-76
2023/07/17 09:10:39;;;;;;;13.27;4.35;;;;;;;18.22;81.36;101663.03;5067529;28;20031;-75
2023/07/17 09:13:05;;;;;;;11.98;4.15;;;;;;;18.32;78.76;101661.47;5057596;28;20044;-77
2023/07/17 09:15:33;;;;;;;13.77;4.72;;;;;;;18.43;73.01;101663.22;5067686;28;20025;-76
2023/07/17 09:18:26;;;;;;;9.85;3.97;;;;;;;18.55;73.20;101663.91;5067089;28;20044;-76
2023/07/17 09:21:01;;;;;;;12.88;4.30;;;;;;;18.59;68.78;101666.97;5067385;28;20349;-75
2023/07/17 09:23:47;;;;;;;12.85;4.72;;;;;;;18.59;71.15;101678.75;5067382;28;20107;-77
2023/07/17 09:26:17;;;;;;;9.32;4.20;;;;;;;18.68;71.64;101670.88;5049580;28;20058;-75
2023/07/17 09:28:57;;;;;;;9.18;3.95;;;;;;;18.80;73.49;101667.16;5064594;28;20456;-76
2023/07/17 09:31:27;;;;;;;13.18;4.30;;;;;;;18.78;69.17;101672.88;5066014;28;20025;-77
2023/07/17 09:33:59;;;;;;;9.77;3.88;;;;;;;18.81;66.87;101672.41;5063587;28;20017;-77
2023/07/17 09:36:25;;;;;;;10.77;3.92;;;;;;;18.81;66.74;101666.91;5080887;28;20476;-75
2023/07/17 09:38:57;;;;;;;9.52;3.88;;;;;;;18.69;64.97;101671.69;5049526;28;20008;-75
2023/07/17 09:41:26;;;;;;;6.75;3.60;;;;;;;18.54;64.98;101678.72;5066516;28;20457;-78
2023/07/17 09:44:03;;;;;;;9.35;3.90;;;;;;;18.54;67.17;101675.13;5065884;28;20036;-77
2023/07/17 09:46:39;;;;;;;6.78;3.25;;;;;;;18.68;63.53;101681.03;5063259;28;20035;-76
2023/07/17 09:49:06;;;;;;;8.23;3.47;;;;;;;18.78;63.90;101679.22;5065740;28;21986;-78
2023/07/17 09:51:32;;;;;;;7.72;3.85;;;;;;;18.92;64.95;101682.38;5068799;28;20021;-77
2023/07/17 09:54:46;;;;;;;14.15;4.05;;;;;;;19.08;65.20;101674.28;5067196;28;20340;-77
2023/07/17 09:57:25;;;;;;;7.75;3.58;;;;;;;19.20;63.85;101680.41;5049394;28;20094;-78
2023/07/17 09:59:51;;;;;;;8.60;3.83;;;;;;;19.07;60.11;101678.13;5041961;28;20021;-78
2023/07/17 10:02:20;;;;;;;9.20;3.80;;;;;;;18.97;60.43;101681.59;5052900;28;20032;-74
2023/07/17 10:05:12;;;;;;;7.10;3.45;;;;;;;19.00;62.43;101677.50;5035024;28;20036;-78
2023/07/17 10:07:37;;;;;;;;;;;;;;;19.15;62.28;101680.38;5034712;28;20041;-77
2023/07/17 10:10:21;;;;;;;14.38;3.90;;;;;;;19.18;61.67;101668.88;5033759;28;19974;-78
2023/07/17 10:12:48;;;;;;;22.33;9.20;;;;;;;19.16;62.71;101671.06;5035240;28;20029;-78
2023/07/17 10:15:19;;;;;;;8.88;3.92;;;;;;;19.16;59.39;101673.81;5035253;28;20025;-77
2023/07/17 10:18:00;;;;;;;;;;;;;;;19.38;62.29;101678.34;5038000;28;20056;-79
2023/07/17 10:20:30;;;;;;;7.45;3.20;;;;;;;19.50;58.17;101673.47;5052764;28;19919;-78
2023/07/17 10:23:02;;;;;;;10.23;3.88;;;;;;;19.42;58.22;101676.72;5038456;28;20443;-77
2023/07/17 10:25:30;;;;;;;;;;;;;;;19.56;61.32;101677.91;5033406;28;20033;-78
2023/07/17 10:27:59;;;;;;;9.57;3.67;;;;;;;19.58;59.61;101686.72;5033035;28;19909;-77
2023/07/17 10:30:30;;;;;;;5.88;3.63;;;;;;;19.55;59.22;101678.16;5033413;28;20116;-78
2023/07/17 10:33:36;;;;;;;8.77;3.42;;;;;;;19.50;59.54;101676.22;5033477;28;20032;-78
2023/07/17 10:36:44;;;;;;;8.13;3.70;;;;;;;19.32;57.78;101687.63;5048464;28;20021;-82
2023/07/17 10:39:35;;;;;;;7.25;3.65;;;;;;;19.30;59.87;101671.44;5053583;28;20067;-78
2023/07/17 10:42:06;;;;;;;6.65;3.63;;;;;;;19.41;57.48;101684.13;5052321;28;20425;-79
2023/07/17 10:44:34;;;;;;;6.50;3.53;;;;;;;19.64;57.19;101688.41;5047457;28;20360;-78
2023/07/17 10:47:07;;;;;;;11.35;4.07;;;;;;;19.78;55.48;101682.47;5034456;28;20025;-78
2023/07/17 10:49:32;;;;;;;8.13;3.60;;;;;;;19.87;55.52;101682.75;5033545;28;20427;-73
2023/07/17 10:52:04;;;;;;;8.43;3.65;;;;;;;20.08;56.23;101669.94;5048141;28;20029;-79
2023/07/17 11:08:32;;;;;;;5.82;3.22;;;;;;;20.26;53.05;101674.97;5049269;28;20515;-77
2023/07/17 11:10:58;;;;;;;8.27;3.20;;;;;;;20.48;53.56;101669.22;5033526;28;20033;-73
2023/07/17 11:13:30;;;;;;;7.78;3.38;;;;;;;20.48;54.22;101671.97;5033841;28;20071;-74
2023/07/17 11:15:55;;;;;;;10.13;3.25;;;;;;;20.46;53.13;101668.69;5033714;28;20032;-73
2023/07/17 11:18:20;;;;;;;8.68;3.67;;;;;;;20.32;53.20;101670.28;5032778;28;20021;-74
2023/07/17 11:20:50;;;;;;;4.78;3.10;;;;;;;20.27;51.67;101684.84;5033936;28;20030;-74
2023/07/17 11:23:18;;;;;;;9.82;4.00;;;;;;;20.21;51.59;101683.16;5034226;28;20041;-75
2023/07/17 11:25:44;;;;;;;7.55;3.75;;;;;;;20.39;52.93;101681.03;5042143;28;20163;-76
2023/07/17 11:28:10;;;;;;;8.15;3.75;;;;;;;20.50;53.28;101678.03;5054325;28;20495;-75
2023/07/17 11:30:35;;;;;;;7.93;3.80;;;;;;;20.45;53.48;101685.44;5039602;28;20044;-75
2023/07/17 11:33:04;;;;;;;9.15;4.10;;;;;;;20.32;53.70;101675.78;5033327;28;20457;-74
2023/07/17 11:35:52;;;;;;;9.93;3.70;;;;;;;20.24;54.90;101682.63;5032440;28;20021;-73
2023/07/17 11:38:19;;;;;;;5.60;3.70;;;;;;;20.17;55.49;101679.34;5051947;28;20467;-73
2023/07/17 11:40:57;;;;;;;8.73;3.75;;;;;;;20.21;56.44;101682.34;5052227;28;20071;-74
2023/07/17 11:43:32;;;;;;;6.45;3.60;;;;;;;20.19;55.41;101679.88;5036172;28;20018;-74
2023/07/17 11:46:03;;;;;;;6.45;3.92;;;;;;;20.18;56.28;101683.72;5043183;28;20059;-76
2023/07/17 11:48:30;;;;;;;11.75;4.72;;;;;;;20.13;57.45;101689.19;5052709;28;20128;-74
2023/07/17 11:50:57;;;;;;;9.70;4.68;;;;;;;20.14;56.96;101682.59;5051679;28;20025;-76
2023/07/17 11:53:23;;;;;;;10.73;4.00;;;;;;;20.19;56.02;101682.63;5060702;28;20028;-76
2023/07/17 11:55:50;;;;;;;11.60;4.40;;;;;;;20.19;55.52;101694.44;5038101;28;20026;-76
2023/07/17 11:58:19;;;;;;;7.85;3.83;;;;;;;20.24;55.31;101681.81;5046784;28;20035;-74
2023/07/17 12:00:46;;;;;;;7.93;4.38;;;;;;;20.33;55.71;101682.94;5049684;28;20460;-74
2023/07/17 12:03:12;;;;;;;7.72;4.20;;;;;;;20.39;55.54;101676.34;5052686;28;20032;-76
2023/07/17 12:05:38;;;;;;;11.32;4.25;;;;;;;20.34;56.25;101679.91;5052579;28;20036;-73
2023/07/17 12:08:04;;;;;;;7.07;3.50;;;;;;;20.28;54.00;101683.75;5039470;28;20377;-75
2023/07/17 12:10:31;;;;;;;5.97;3.50;;;;;;;20.21;52.89;101682.34;5044896;28;20039;-72
2023/07/17 12:12:57;;;;;;;8.23;3.63;;;;;;;20.24;52.61;101684.56;5033576;28;20029;-74
2023/07/17 12:15:22;;;;;;;6.32;3.72;;;;;;;20.23;52.75;101678.25;5049586;28;20025;-75
2023/07/17 12:17:51;;;;;;;7.30;3.60;;;;;;;20.27;53.59;101673.84;5045886;28;20033;-75
2023/07/17 12:20:18;;;;;;;8.40;4.13;;;;;;;20.25;53.55;101675.22;5052029;28;20032;-78
2023/07/17 12:22:45;;;;;;;7.63;3.80;;;;;;;20.30;55.05;101675.22;5052011;28;20474;-76
2023/07/17 12:25:16;;;;;;;9.13;3.67;;;;;;;20.32;54.80;101670.28;5050674;28;20013;-75
2023/07/17 12:27:42;;;;;;;11.98;4.38;;;;;;;20.41;55.52;101663.19;5050872;28;20078;-75
2023/07/17 12:30:22;;;;;;;11.23;4.10;;;;;;;20.59;55.99;101675.56;5052252;28;20076;-76
2023/07/17 12:32:47;;;;;;;8.70;4.15;;;;;;;20.69;55.77;101670.13;5036122;28;20104;-76
2023/07/17 12:35:13;;;;;;;8.23;4.03;;;;;;;20.80;54.75;101661.88;5044114;28;20215;-77
2023/07/17 12:37:38;;;;;;;7.20;3.90;;;;;;;20.88;53.31;101661.34;5052752;28;20064;-77
2023/07/17 12:40:04;;;;;;;6.20;3.75;;;;;;;21.05;53.53;101667.38;5051114;28;20055;-75
2023/07/17 12:42:39;;;;;;;8.77;3.80;;;;;;;21.10;52.77;101660.22;5051000;28;20373;-77
2023/07/17 12:45:05;;;;;;;7.22;3.50;;;;;;;21.20;53.27;101657.47;5051162;28;20364;-76
2023/07/17 12:47:38;;;;;;;5.85;3.45;;;;;;;21.45;54.29;101653.81;5050543;28;20414;-77
2023/07/17 12:50:37;;;;;;;5.70;3.55;;;;;;;21.58;53.67;101657.97;5038044;28;20496;-78
2023/07/17 12:53:06;;;;;;;5.20;3.05;;;;;;;21.54;51.08;101662.38;5030361;28;20525;-77
2023/07/17 12:56:18;;;;;;;;;;;;;;;;;;;;;
2023/07/17 12:58:57;;;;;;;5.28;3.05;;;;;;;21.89;50.16;101658.69;5051493;28;20051;-77
2023/07/17 13:01:23;;;;;;;7.32;3.13;;;;;;;21.71;49.15;101662.88;5049952;28;20128;-77
2023/07/17 13:03:51;;;;;;;4.40;2.83;;;;;;;21.61;49.51;101668.44;5050829;28;20512;-79
2023/07/17 13:06:16;;;;;;;5.93;2.85;;;;;;;21.66;50.14;101662.88;5050645;28;20056;-79
2023/07/17 13:08:42;;;;;;;4.97;2.58;;;;;;;21.66;49.45;101664.84;5046022;28;20677;-79
2023/07/17 13:11:07;;;;;;;4.55;2.30;;;;;;;21.75;47.68;101666.72;5050794;28;20508;-78
2023/07/17 13:13:33;;;;;;;4.32;2.38;;;;;;;21.57;47.04;101659.91;5052280;28;20029;-76
2023/07/17 13:15:58;;;;;;;4.82;2.40;;;;;;;21.47;48.95;101667.31;5049781;28;20399;-75
2023/07/17 13:18:23;;;;;;;5.13;2.65;;;;;;;21.36;49.49;101661.00;5050014;28;20025;-75
2023/07/17 13:20:49;;;;;;;6.55;2.90;;;;;;;21.40;49.29;101664.88;5050926;28;20116;-75
2023/07/17 13:23:14;;;;;;;4.35;2.60;;;;;;;21.28;50.37;101676.16;5045142;28;20023;-75
2023/07/17 13:25:39;;;;;;;5.10;2.38;;;;;;;21.01;49.76;101682.78;5034939;28;20033;-74
2023/07/17 13:28:05;;;;;;;6.15;3.08;;;;;;;20.88;51.21;101675.91;5032060;28;20072;-74
2023/07/17 13:30:30;;;;;;;8.35;2.80;;;;;;;21.06;50.49;101670.94;5031869;28;20014;-75
2023/07/17 13:32:55;;;;;;;5.53;2.50;;;;;;;21.20;49.72;101680.31;5030465;28;20021;-77
2023/07/17 13:35:20;;;;;;;5.15;2.50;;;;;;;21.70;51.24;101676.94;5050685;28;20051;-74
2023/07/17 13:37:46;;;;;;;6.53;2.55;;;;;;;21.75;49.73;101688.75;5036872;28;20017;-77
2023/07/17 13:40:12;;;;;;;4.55;2.65;;;;;;;21.63;49.82;101690.19;5039257;28;20029;-77
2023/07/17 13:42:37;;;;;;;6.40;2.63;;;;;;;21.46;49.45;101688.53;5055255;28;20029;-75
2023/07/17 13:45:03;;;;;;;5.53;2.35;;;;;;;21.13;49.95;101685.25;5053923;28;20029;-76
2023/07/17 13:47:28;;;;;;;6.15;2.85;;;;;;;20.88;50.51;101708.13;5055133;28;20032;-74
2023/07/17 13:49:53;;;;;;;3.97;2.55;;;;;;;20.75;52.01;101711.41;5055293;28;20025;-78
2023/07/17 13:52:19;;;;;;;3.88;2.55;;;;;;;20.39;52.51;101712.09;5054916;28;20835;-76
2023/07/17 13:54:44;;;;;;;4.07;2.60;;;;;;;20.23;56.66;101726.88;5053685;28;22437;-75
2023/07/17 13:57:10;;;;;;;5.75;2.83;;;;;;;20.01;62.48;101730.63;5051629;28;20036;-77
2023/07/17 13:59:35;;;;;;;7.65;3.05;;;;;;;19.77;66.65;101733.78;5036068;28;20059;-75
2023/07/17 14:02:00;;;;;;;5.32;3.40;;;;;;;19.61;70.90;101729.25;5032211;28;20017;-81
2023/07/17 14:04:26;;;;;;;6.15;3.60;;;;;;;19.46;74.36;101713.50;5036022;28;20100;-84
2023/07/17 14:06:51;;;;;;;5.93;3.60;;;;;;;19.38;85.58;101711.28;5035507;28;20030;-74
2023/07/17 14:09:16;;;;;;;7.03;4.03;;;;;;;19.40;93.49;101715.41;5040081;28;20028;-76
2023/07/17 14:11:44;;;;;;;9.10;3.70;;;;;;;19.56;91.27;101718.25;5048660;28;20017;-80
2023/07/17 14:14:09;;;;;;;6.28;3.55;;;;;;;19.55;78.49;101714.69;5053684;28;20063;-76
2023/07/17 14:16:39;;;;;;;4.78;3.50;;;;;;;19.55;76.22;101728.44;5053729;28;20033;-77
2023/07/17 14:19:05;;;;;;;6.43;3.40;;;;;;;19.55;75.52;101728.44;5037207;28;20473;-76
2023/07/17 14:21:30;;;;;;;6.72;3.60;;;;;;;19.56;83.54;101735.56;5033544;28;20040;-75
2023/07/17 14:23:56;;;;;;;9.13;3.97;;;;;;;19.62;89.97;101742.72;5034805;28;20017;-75
2023/07/17 14:26:22;;;;;;;6.57;3.95;;;;;;;19.77;80.52;101736.53;5034826;28;20025;-75
2023/07/17 14:28:51;;;;;;;6.03;3.70;;;;;;;19.95;83.04;101739.94;5037156;28;21137;-75
2023/07/17 14:31:17;;;;;;;9.80;4.28;;;;;;;19.99;75.65;101733.66;5054361;28;20579;-76
2023/07/17 14:33:42;;;;;;;10.05;3.97;;;;;;;19.96;74.54;101736.94;5040328;28;20028;-75
2023/07/17 14:36:07;;;;;;;14.02;4.13;;;;;;;19.96;68.06;101736.13;5042666;28;20468;-74
2023/07/17 14:38:36;;;;;;;9.25;4.00;;;;;;;19.86;66.84;101745.13;5044380;28;20097;-76
2023/07/17 14:41:02;;;;;;;6.88;3.92;;;;;;;19.68;66.95;101742.78;5033435;28;20356;-74
2023/07/17 14:43:27;;;;;;;10.05;4.38;;;;;;;19.63;66.53;101749.88;5045654;28;20029;-76
2023/07/17 14:45:53;;;;;;;7.40;4.38;;;;;;;19.61;67.93;101748.47;5053162;28;20112;-72
2023/07/17 14:48:18;;;;;;;6.82;4.25;;;;;;;19.54;64.95;101758.88;5053838;28;20049;-74
2023/07/17 14:50:43;;;;;;;9.93;4.43;;;;;;;19.43;66.62;101764.28;5054527;28;20036;-75
2023/07/17 14:53:09;;;;;;;8.02;3.92;;;;;;;19.36;63.58;101760.94;5039909;28;20025;-73
2023/07/17 14:55:34;;;;;;;7.30;3.63;;;;;;;19.35;66.48;101769.44;5047583;28;20030;-76
2023/07/17 14:57:59;;;;;;;7.68;4.10;;;;;;;19.34;67.03;101776.84;5052223;28;20025;-74
2023/07/17 15:00:25;;;;;;;6.05;3.42;;;;;;;19.29;66.43;101771.28;5031973;28;20461;-73
2023/07/17 15:02:51;;;;;;;6.95;3.53;;;;;;;19.28;66.82;101777.91;5045882;28;20119;-77
2023/07/17 15:05:17;;;;;;;7.68;3.65;;;;;;;19.35;66.01;101772.19;5047128;28;20037;-74
2023/07/17 15:07:42;;;;;;;4.03;3.03;;;;;;;19.36;64.01;101769.16;5034444;28;20028;-71
2023/07/17 15:10:11;;;;;;;6.03;3.53;;;;;;;19.39;65.59;101776.88;5033691;28;20036;-76
2023/07/17 15:12:36;;;;;;;5.38;3.60;;;;;;;19.51;67.49;101776.69;5041513;28;20036;-77
2023/07/17 15:15:01;;;;;;;5.43;3.35;;;;;;;19.70;65.04;101773.53;5040632;28;20033;-76
2023/07/17 15:17:27;;;;;;;6.22;2.97;;;;;;;19.94;62.82;101774.84;5050766;28;20047;-76
2023/07/17 15:19:53;;;;;;;6.88;3.30;;;;;;;19.98;64.00;101775.94;5051902;28;20497;-74
2023/07/17 15:22:21;;;;;;;5.50;2.58;;;;;;;19.97;60.35;101774.31;5051792;28;20033;-73
2023/07/17 15:24:47;;;;;;;5.72;2.75;;;;;;;19.95;63.77;101759.19;5053300;28;20021;-76
2023/07/17 15:27:14;;;;;;;4.70;2.72;;;;;;;19.93;63.51;101766.84;5052829;28;20028;-76
2023/07/17 15:29:42;;;;;;;4.82;2.88;;;;;;;19.86;60.97;101766.25;5051662;28;20033;-75
2023/07/17 15:32:08;;;;;;;4.88;3.08;;;;;;;19.79;60.87;101761.00;5045000;28;20056;-75
2023/07/17 15:34:33;;;;;;;6.20;3.28;;;;;;;19.71;59.62;101762.28;5033014;28;20163;-73
2023/07/17 15:36:58;;;;;;;4.85;2.90;;;;;;;19.95;61.75;101751.75;5033087;28;20365;-74
2023/07/17 15:39:24;;;;;;;6.43;2.80;;;;;;;20.07;59.47;101737.81;5034497;28;20461;-75
2023/07/17 15:41:49;;;;;;;5.32;2.95;;;;;;;20.06;60.12;101741.63;5041549;28;20029;-74
2023/07/17 15:44:15;;;;;;;4.93;2.80;;;;;;;20.06;61.30;101735.31;5038357;28;20021;-75
2023/07/17 15:46:40;;;;;;;4.97;2.60;;;;;;;20.42;60.04;101738.22;5047417;28;20032;-74
2023/07/17 15:49:06;;;;;;;3.97;2.42;;;;;;;21.21;57.04;101755.44;5053105;28;20044;-75
2023/07/17 15:52:25;;;;;;;3.03;2.22;;;;;;;22.06;53.48;101765.00;5051648;28;20025;-77
2023/07/17 15:54:51;;;;;;;6.05;2.30;;;;;;;22.49;50.07;101765.41;5047763;28;20038;-75
2023/07/17 15:57:16;;;;;;;4.13;2.17;;;;;;;22.59;50.07;101775.56;5050391;28;20027;-75
2023/07/17 15:59:42;;;;;;;4.85;2.10;;;;;;;23.24;48.97;101778.19;5039417;28;20538;-76
